Time;durP1;ratioP1;P1;durP2;ratioP2;P2;SDS_P1;SDS_P2;PMS_P1;PMS_P2;Temp;Humidity;BMP_temperature;BMP_pressure;BME280_temperature;BME280_humidity;BME280_pressure;Samples;Min_cycle;Max_cycle;Signal;HPM_P1;HPM_P2
2023/03/27 04:02:59;;;;;;;5.60;3.28;;;;;;;11.43;93.68;98629.59;5605232;31;79780;-57
2023/03/27 04:06:04;;;;;;;3.28;2.37;;;;;;;11.43;93.68;98629.59;5584205;31;33070;-57
2023/03/27 04:09:07;;;;;;;4.05;2.83;;;;;;;10.98;95.62;98635.56;5583789;31;33606;-57
2023/03/27 04:12:10;;;;;;;4.15;2.58;;;;;;;11.02;93.75;98631.13;5589821;31;34276;-57
2023/03/27 04:15:14;;;;;;;5.90;3.20;;;;;;;11.05;100.00;98628.56;5591626;31;33296;-58
2023/03/27 04:18:18;;;;;;;4.22;2.83;;;;;;;11.13;100.00;98640.38;5603561;31;33157;-57
2023/03/27 04:21:25;;;;;;;4.62;2.87;;;;;;;11.13;96.47;98639.59;5603387;31;32578;-57
2023/03/27 04:24:31;;;;;;;5.30;3.10;;;;;;;11.18;98.57;98636.69;5601074;31;33081;-57
2023/03/27 04:27:34;;;;;;;4.85;2.85;;;;;;;11.15;92.27;98630.09;5576487;31;34543;-57
2023/03/27 04:30:42;;;;;;;4.05;2.70;;;;;;;11.23;93.95;98629.25;5583480;31;33282;-57
2023/03/27 04:33:50;;;;;;;3.75;2.75;;;;;;;11.30;98.11;98634.09;5583395;31;34503;-57
2023/03/27 04:36:54;;;;;;;4.93;2.92;;;;;;;11.22;94.52;98627.66;5565725;31;33298;-57
2023/03/27 04:39:59;;;;;;;6.37;2.80;;;;;;;11.37;96.73;98631.66;5564807;32;33395;-57
2023/03/27 04:43:02;;;;;;;4.22;2.97;;;;;;;11.47;95.32;98633.97;5563831;32;33402;-58
2023/03/27 04:46:07;;;;;;;4.30;2.80;;;;;;;11.64;100.00;98624.19;5569154;31;33516;-57
2023/03/27 04:49:10;;;;;;;5.57;3.03;;;;;;;11.50;96.96;98627.16;5582996;31;33233;-57
2023/03/27 04:52:12;;;;;;;3.97;2.90;;;;;;;11.26;88.96;98625.91;5583034;31;33447;-57
2023/03/27 04:55:17;;;;;;;5.18;3.72;;;;;;;11.33;100.00;98620.03;5583269;31;33688;-57
2023/03/27 04:58:22;;;;;;;4.45;3.47;;;;;;;11.43;97.03;98626.91;5579331;31;33094;-57
2023/03/27 05:01:25;;;;;;;5.82;3.50;;;;;;;11.38;96.57;98614.44;5565466;31;33598;-57
2023/03/27 05:04:30;;;;;;;4.87;3.65;;;;;;;11.43;100.00;98613.50;5574902;31;34311;-58
2023/03/27 05:07:34;;;;;;;4.78;3.60;;;;;;;11.23;92.59;98607.03;5583191;31;33707;-57
2023/03/27 05:10:37;;;;;;;6.15;3.47;;;;;;;11.20;91.96;98597.72;5582619;31;34325;-57
2023/03/27 05:13:40;;;;;;;5.82;3.50;;;;;;;11.51;100.00;98593.84;5572621;31;34205;-58
2023/03/27 05:16:42;;;;;;;4.85;3.20;;;;;;;11.68;100.00;98599.03;5558842;31;33371;-57
2023/03/27 05:19:45;;;;;;;3.22;2.80;;;;;;;11.39;88.32;98591.09;5549923;32;33325;-57
2023/03/27 05:22:51;;;;;;;4.20;2.83;;;;;;;11.51;100.00;98596.50;5550279;32;33188;-57
2023/03/27 05:25:55;;;;;;;5.47;3.67;;;;;;;11.67;100.00;98592.09;5550658;32;33333;-57
2023/03/27 05:29:07;;;;;;;4.62;3.00;;;;;;;11.31;91.68;98600.00;5550055;32;33560;-57
2023/03/27 05:32:10;;;;;;;5.10;3.10;;;;;;;11.50;100.00;98592.28;5554667;32;33423;-57
2023/03/27 05:35:15;;;;;;;3.85;3.17;;;;;;;11.46;95.79;98594.06;5568446;31;34522;-57
2023/03/27 05:38:18;;;;;;;4.78;3.15;;;;;;;11.23;89.68;98589.03;5565957;32;33336;-57
2023/03/27 05:41:20;;;;;;;5.22;3.20;;;;;;;11.12;89.89;98585.16;5561232;32;33544;-57
2023/03/27 05:44:24;;;;;;;4.43;3.33;;;;;;;11.22;100.00;98584.75;5569250;31;33325;-57
2023/03/27 05:47:26;;;;;;;5.03;3.40;;;;;;;11.50;99.40;98586.91;5568886;31;33313;-57
2023/03/27 05:50:33;;;;;;;4.75;2.92;;;;;;;11.18;92.29;98580.38;5565879;31;32632;-57
2023/03/27 05:53:39;;;;;;;5.87;3.35;;;;;;;11.31;96.04;98570.50;5550612;32;31893;-58
2023/03/27 05:56:44;;;;;;;4.07;2.85;;;;;;;11.01;89.24;98575.94;5558604;31;34475;-57
2023/03/27 05:59:47;;;;;;;4.95;3.03;;;;;;;11.10;92.36;98570.53;5562490;32;33222;-57
2023/03/27 06:02:58;;;;;;;5.72;3.45;;;;;;;10.88;88.77;98564.34;5562100;31;31712;-57
2023/03/27 06:06:11;;;;;;;5.85;3.72;;;;;;;10.89;90.30;98565.91;5565310;32;32542;-57
2023/03/27 06:09:13;;;;;;;9.68;3.37;;;;;;;11.03;95.38;98573.72;5551714;32;35017;-57
2023/03/27 06:12:17;;;;;;;6.20;3.85;;;;;;;11.04;90.68;98564.56;5553491;31;34552;-57
2023/03/27 06:15:20;;;;;;;4.35;2.97;;;;;;;11.22;100.00;98565.19;5549128;32;32975;-57
2023/03/27 06:18:23;;;;;;;4.32;2.45;;;;;;;11.44;99.43;98558.69;5549507;32;34024;-57
2023/03/27 06:21:26;;;;;;;3.53;2.40;;;;;;;11.09;95.93;98558.97;5564637;32;33413;-57
2023/03/27 06:24:30;;;;;;;3.10;2.00;;;;;;;11.11;98.84;98559.44;5565240;32;33674;-57
2023/03/27 06:27:34;;;;;;;4.30;1.95;;;;;;;11.02;89.92;98561.41;5564612;31;34130;-57
2023/03/27 06:30:37;;;;;;;2.35;1.75;;;;;;;11.34;96.60;98559.87;5557718;32;33279;-57
2023/03/27 06:33:42;;;;;;;4.47;1.55;;;;;;;11.33;89.28;98542.25;5556246;32;33328;-57
2023/03/27 06:36:49;;;;;;;1.95;1.75;;;;;;;11.26;86.32;98553.50;5562168;32;33035;-57
2023/03/27 06:39:51;;;;;;;2.67;1.50;;;;;;;11.26;97.68;98550.81;5564232;31;33197;-57
2023/03/27 06:43:01;;;;;;;2.95;2.03;;;;;;;11.23;87.52;98558.75;5554910;32;33700;-57
2023/03/27 06:46:05;;;;;;;4.55;1.60;;;;;;;11.33;100.00;98554.88;5560765;32;32691;-57
2023/03/27 06:49:10;;;;;;;2.50;1.50;;;;;;;11.14;86.87;98552.66;5563608;32;32995;-58
2023/03/27 06:52:14;;;;;;;3.28;1.80;;;;;;;11.20;92.74;98554.03;5557975;31;34509;-57
2023/03/27 06:55:19;;;;;;;1.85;1.40;;;;;;;11.06;91.02;98556.97;5558774;31;34229;-57
2023/03/27 06:58:23;;;;;;;4.03;1.40;;;;;;;10.94;89.45;98552.31;5555685;32;33543;-57
2023/03/27 07:01:25;;;;;;;3.28;1.60;;;;;;;11.10;91.04;98557.09;5557847;32;33730;-57
2023/03/27 07:04:30;;;;;;;2.45;1.50;;;;;;;10.92;100.00;98556.44;5558662;32;32154;-57
2023/03/27 07:07:33;;;;;;;4.10;1.70;;;;;;;10.60;95.90;98565.97;5556688;31;32853;-57
2023/03/27 07:10:36;;;;;;;2.37;1.60;;;;;;;10.82;97.37;98569.13;5556469;32;33405;-58
2023/03/27 07:13:40;;;;;;;1.62;1.37;;;;;;;10.64;89.25;98573.03;5561674;31;33535;-58
2023/03/27 07:16:43;;;;;;;2.53;1.75;;;;;;;11.02;98.66;98572.12;5558454;31;33407;-57
2023/03/27 07:19:47;;;;;;;3.33;1.60;;;;;;;10.87;88.72;98567.37;5558965;32;34479;-57
2023/03/27 07:22:50;;;;;;;3.12;1.40;;;;;;;10.67;88.11;98577.75;5561497;32;33622;-57
2023/03/27 07:25:59;;;;;;;2.62;1.80;;;;;;;10.34;88.10;98564.97;5560648;32;34772;-57
2023/03/27 07:29:04;;;;;;;2.10;1.60;;;;;;;10.57;94.93;98573.53;5564140;31;31804;-57
2023/03/27 07:32:07;;;;;;;3.00;1.80;;;;;;;10.67;95.73;98576.97;5551493;32;33816;-57
2023/03/27 07:35:11;;;;;;;3.67;1.70;;;;;;;10.64;96.90;98573.03;5552458;31;34210;-57
2023/03/27 07:38:17;;;;;;;2.70;1.62;;;;;;;10.62;91.04;98572.56;5548062;32;34464;-57
2023/03/27 07:41:30;;;;;;;3.28;1.37;;;;;;;10.60;96.81;98574.00;5550945;32;31813;-57
2023/03/27 07:44:34;;;;;;;3.53;1.42;;;;;;;10.97;100.00;98581.16;5563302;32;34374;-57
2023/03/27 07:47:40;;;;;;;7.20;2.05;;;;;;;10.68;84.99;98584.66;5553387;31;33156;-57
2023/03/27 07:50:43;;;;;;;2.80;1.60;;;;;;;10.87;99.07;98584.22;5547229;32;34414;-57
2023/03/27 07:53:48;;;;;;;3.53;1.58;;;;;;;10.59;91.61;98589.28;5553404;32;33223;-58
2023/03/27 07:56:50;;;;;;;3.42;1.60;;;;;;;10.46;87.29;98584.94;5560257;32;33311;-58
2023/03/27 07:59:56;;;;;;;4.15;1.50;;;;;;;10.37;89.76;98578.84;5557791;32;33472;-57
2023/03/27 08:03:07;;;;;;;2.60;1.45;;;;;;;10.33;89.03;98581.34;5560855;31;31950;-58
2023/03/27 08:06:10;;;;;;;2.00;1.60;;;;;;;10.29;88.43;98577.75;5554259;31;32709;-57
2023/03/27 08:09:13;;;;;;;3.58;1.80;;;;;;;10.25;94.74;98577.59;5552374;32;33288;-57
2023/03/27 08:12:15;;;;;;;3.58;1.85;;;;;;;10.23;91.42;98576.34;5560060;32;33199;-57
2023/03/27 08:15:19;;;;;;;3.80;1.77;;;;;;;10.53;98.79;98577.19;5560826;31;34193;-57
2023/03/27 08:18:21;;;;;;;2.75;1.48;;;;;;;10.94;100.00;98592.53;5553487;32;34655;-57
2023/03/27 08:21:25;;;;;;;3.42;1.60;;;;;;;10.52;90.38;98594.34;5556603;31;33476;-57
2023/03/27 08:24:28;;;;;;;1.92;1.58;;;;;;;10.47;90.55;98606.06;5565048;31;34280;-57
2023/03/27 08:27:32;;;;;;;2.75;1.58;;;;;;;10.50;92.57;98605.41;5564631;31;33310;-57
2023/03/27 08:30:36;;;;;;;4.53;1.70;;;;;;;10.55;91.17;98602.53;5563676;31;34379;-57
2023/03/27 08:33:40;;;;;;;1.70;1.40;;;;;;;10.30;90.68;98604.25;5563777;32;33531;-57
2023/03/27 08:36:45;;;;;;;5.53;1.95;;;;;;;10.25;91.08;98607.06;5568314;31;34636;-57
2023/03/27 08:39:47;;;;;;;2.67;1.80;;;;;;;10.02;90.56;98622.56;5567192;31;33516;-57
2023/03/27 08:42:53;;;;;;;3.53;2.17;;;;;;;10.14;90.96;98618.44;5567412;32;33203;-57
2023/03/27 08:46:02;;;;;;;5.00;1.92;;;;;;;10.20;90.28;98622.50;5559408;32;34139;-57
2023/03/27 08:49:18;;;;;;;4.57;2.20;;;;;;;10.28;94.00;98624.41;5553636;32;33243;-58
2023/03/27 08:52:29;;;;;;;6.37;2.20;;;;;;;10.31;96.03;98631.81;5565777;32;32040;-57
2023/03/27 08:55:39;;;;;;;4.85;1.85;;;;;;;10.33;90.83;98632.25;5558653;31;33158;-57
2023/03/27 08:58:43;;;;;;;3.92;2.10;;;;;;;10.30;90.37;98625.66;5552420;32;33198;-57
2023/03/27 09:02:10;;;;;;;3.00;2.08;;;;;;;10.41;92.47;98620.72;5563083;31;33234;-57
2023/03/27 09:05:25;;;;;;;2.75;1.90;;;;;;;10.48;90.70;98622.91;5554190;31;34450;-58
2023/03/27 09:08:55;;;;;;;3.97;1.80;;;;;;;10.48;89.45;98625.59;5562480;31;31833;-57
2023/03/27 09:12:15;;;;;;;3.60;2.00;;;;;;;10.54;90.13;98622.41;5553138;31;34425;-58
2023/03/27 09:15:26;;;;;;;3.35;2.28;;;;;;;10.61;89.36;98616.53;5559221;32;34373;-57
2023/03/27 09:19:14;;;;;;;5.07;2.50;;;;;;;10.67;89.27;98625.97;5554154;32;34554;-58
2023/03/27 09:22:26;;;;;;;4.53;2.33;;;;;;;10.67;88.67;98627.88;5534753;32;31904;-58
2023/03/27 09:25:45;;;;;;;6.00;2.17;;;;;;;10.57;91.66;98632.47;5557394;32;33291;-57
2023/03/27 09:28:59;;;;;;;5.40;2.50;;;;;;;10.62;91.22;98628.03;5560515;31;33203;-57
2023/03/27 09:32:02;;;;;;;5.60;2.40;;;;;;;10.80;100.00;98641.03;5561602;31;32761;-57
2023/03/27 09:35:05;;;;;;;5.43;2.40;;;;;;;10.68;92.05;98643.63;5559827;32;34522;-57
2023/03/27 09:38:36;;;;;;;4.57;2.28;;;;;;;10.65;90.68;98644.25;5563438;31;33048;-58
2023/03/27 09:41:49;;;;;;;5.50;2.47;;;;;;;10.76;100.00;98642.81;5561903;32;33698;-57
2023/03/27 09:44:57;;;;;;;3.55;2.40;;;;;;;10.56;93.16;98646.19;5553256;31;33148;-57
2023/03/27 09:48:02;;;;;;;3.42;2.50;;;;;;;10.51;91.04;98654.41;5557633;32;33193;-58
2023/03/27 09:51:46;;;;;;;3.70;2.10;;;;;;;10.71;100.00;98659.06;5557260;32;34466;-58
2023/03/27 09:54:52;;;;;;;5.82;2.60;;;;;;;10.53;92.92;98661.03;5555609;31;33416;-57
2023/03/27 09:58:24;;;;;;;4.25;2.42;;;;;;;10.57;92.79;98661.19;5561781;32;33438;-57
2023/03/27 10:01:33;;;;;;;4.25;2.30;;;;;;;10.46;92.92;98676.00;5562583;31;33453;-57
2023/03/27 10:04:36;;;;;;;3.60;2.28;;;;;;;10.78;100.00;98675.41;5558474;32;33640;-57
2023/03/27 10:07:40;;;;;;;4.47;2.37;;;;;;;10.69;99.81;98671.97;5562207;32;34476;-57
2023/03/27 10:10:44;;;;;;;2.75;2.12;;;;;;;11.03;100.00;98676.41;5550396;32;33464;-58
2023/03/27 10:13:50;;;;;;;4.05;2.53;;;;;;;10.76;93.25;98671.47;5551708;32;34348;-57
2023/03/27 10:16:53;;;;;;;7.80;2.50;;;;;;;10.95;100.00;98689.84;5556546;32;34531;-57
2023/03/27 10:20:26;;;;;;;4.57;2.80;;;;;;;10.52;99.94;98688.13;5555825;31;31678;-57
2023/03/27 10:23:39;;;;;;;4.35;2.53;;;;;;;10.31;94.53;98680.78;5556163;31;33570;-57
2023/03/27 10:26:47;;;;;;;6.82;2.40;;;;;;;10.47;92.63;98691.00;5560840;32;34721;-58
2023/03/27 10:29:51;;;;;;;5.68;2.40;;;;;;;10.15;90.00;98692.31;5555921;32;33747;-57
2023/03/27 10:32:55;;;;;;;2.83;1.85;;;;;;;10.34;100.00;98692.78;5551049;32;33778;-57
2023/03/27 10:35:59;;;;;;;2.22;1.70;;;;;;;10.27;100.00;98687.91;5556145;31;33306;-58
2023/03/27 10:39:13;;;;;;;4.18;2.05;;;;;;;10.19;95.10;98702.06;5560851;32;34608;-57
2023/03/27 10:42:17;;;;;;;2.35;1.92;;;;;;;10.03;94.46;98709.00;5557829;32;33716;-57
2023/03/27 10:45:22;;;;;;;3.30;1.60;;;;;;;10.23;95.17;98711.03;5554197;32;33518;-58
2023/03/27 10:48:52;;;;;;;1.85;1.50;;;;;;;10.35;100.00;98713.87;5553196;32;34369;-57
2023/03/27 10:52:26;;;;;;;2.42;1.60;;;;;;;10.22;89.88;98714.03;5564572;31;33220;-56
2023/03/27 10:55:47;;;;;;;2.20;1.85;;;;;;;10.32;100.00;98711.03;5557367;31;34434;-55
2023/03/27 10:59:03;;;;;;;2.87;1.87;;;;;;;10.37;93.10;98708.19;5557748;32;34369;-56
2023/03/27 11:02:14;;;;;;;3.10;1.92;;;;;;;10.30;92.96;98713.25;5561987;32;34547;-56
2023/03/27 11:05:25;;;;;;;3.53;1.73;;;;;;;10.40;100.00;98720.16;5549582;32;33554;-56
2023/03/27 11:08:30;;;;;;;2.87;1.95;;;;;;;10.27;93.72;98724.62;5555838;32;34444;-56
2023/03/27 11:11:58;;;;;;;2.80;1.80;;;;;;;10.41;100.00;98721.75;5563155;31;33599;-56
2023/03/27 11:15:16;;;;;;;5.00;2.00;;;;;;;10.47;100.00;98723.94;5566933;31;34407;-56
2023/03/27 11:18:28;;;;;;;3.35;1.65;;;;;;;10.77;100.00;98721.31;5558545;31;35967;-56
2023/03/27 11:21:37;;;;;;;2.12;1.52;;;;;;;10.56;93.97;98724.69;5559865;32;33468;-55
2023/03/27 11:24:48;;;;;;;1.40;1.30;;;;;;;10.40;91.51;98736.22;5553705;32;34518;-55
2023/03/27 11:28:12;;;;;;;2.45;1.27;;;;;;;10.47;92.07;98740.00;5566537;31;34371;-55
2023/03/27 11:31:26;;;;;;;3.05;1.20;;;;;;;10.44;100.00;98735.28;5563620;31;33443;-56
2023/03/27 11:34:45;;;;;;;2.67;1.42;;;;;;;10.42;97.49;98737.47;5567342;32;33619;-56
2023/03/27 11:38:01;;;;;;;1.77;1.20;;;;;;;10.81;100.00;98739.09;5558981;32;33364;-56
2023/03/27 11:41:06;;;;;;;2.33;1.48;;;;;;;10.81;100.00;98743.69;5560640;32;32079;-56
2023/03/27 11:44:10;;;;;;;2.47;1.65;;;;;;;11.10;100.00;98729.53;5564425;31;31860;-56
2023/03/27 11:47:18;;;;;;;2.58;1.90;;;;;;;10.82;98.55;98723.78;5560748;32;34517;-57
2023/03/27 11:50:41;;;;;;;3.28;2.42;;;;;;;10.67;92.82;98729.72;5563726;31;32705;-56
2023/03/27 11:53:53;;;;;;;5.15;3.42;;;;;;;10.67;94.45;98733.16;5553674;32;33781;-55
2023/03/27 11:57:01;;;;;;;7.30;3.47;;;;;;;10.78;100.00;98745.09;5561107;31;33021;-56
2023/03/27 12:00:19;;;;;;;3.87;3.00;;;;;;;11.00;100.00;98736.03;5559734;32;34504;-57
2023/03/27 12:03:27;;;;;;;14.02;9.27;;;;;;;10.87;100.00;98741.63;5568102;32;35180;-55
2023/03/27 12:06:52;;;;;;;19.15;14.40;;;;;;;10.39;91.42;98740.78;5566995;32;32341;-56
2023/03/27 12:10:19;;;;;;;16.83;14.82;;;;;;;10.39;91.22;98742.69;5567315;31;32977;-56
2023/03/27 12:13:53;;;;;;;19.02;15.00;;;;;;;10.34;92.72;98746.34;5567963;32;33372;-56
2023/03/27 12:17:13;;;;;;;20.80;15.65;;;;;;;10.37;92.91;98748.38;5567930;31;34411;-55
2023/03/27 12:20:44;;;;;;;18.85;14.48;;;;;;;10.30;89.83;98748.88;5568191;31;33872;-56
2023/03/27 12:24:16;;;;;;;18.25;13.77;;;;;;;10.19;89.76;98742.22;5569992;31;33719;-55
2023/03/27 12:27:29;;;;;;;18.62;13.82;;;;;;;10.11;88.36;98743.81;5569910;32;33442;-55
2023/03/27 12:30:46;;;;;;;17.33;13.85;;;;;;;9.93;85.57;98750.25;5559637;32;34593;-56
2023/03/27 12:34:09;;;;;;;16.50;13.18;;;;;;;10.03;89.02;98754.50;5555703;32;33878;-55
2023/03/27 12:37:12;;;;;;;16.37;13.80;;;;;;;10.06;86.93;98752.00;5559247;32;33450;-55
2023/03/27 12:40:36;;;;;;;15.02;12.63;;;;;;;10.00;88.16;98765.84;5561338;31;33403;-55
2023/03/27 12:43:44;;;;;;;13.73;11.27;;;;;;;9.97;87.53;98758.47;5570672;31;33502;-55
2023/03/27 12:47:12;;;;;;;12.45;10.23;;;;;;;9.95;94.71;98758.00;5570517;31;34403;-55
2023/03/27 12:50:20;;;;;;;10.82;8.63;;;;;;;10.09;88.30;98774.69;5570693;32;33374;-55
2023/03/27 12:53:29;;;;;;;11.30;8.88;;;;;;;9.97;83.61;98786.03;5568171;31;33273;-56
2023/03/27 12:56:34;;;;;;;8.25;6.25;;;;;;;9.79;83.99;98789.78;5568723;31;33568;-56
2023/03/27 12:59:48;;;;;;;7.22;4.03;;;;;;;9.64;81.22;98812.44;5568997;32;34050;-55
2023/03/27 13:03:10;;;;;;;6.20;4.15;;;;;;;9.44;79.34;98810.31;5563138;32;33654;-55
2023/03/27 13:06:21;;;;;;;5.78;3.95;;;;;;;9.32;81.05;98817.06;5569469;32;32300;-55
2023/03/27 13:09:51;;;;;;;7.90;4.20;;;;;;;9.25;76.99;98819.41;5570208;32;33709;-55
2023/03/27 13:13:25;;;;;;;5.43;3.47;;;;;;;9.44;77.57;98831.72;5569910;32;33268;-55
2023/03/27 13:16:41;;;;;;;4.70;3.08;;;;;;;9.05;76.78;98836.78;5569943;32;33383;-55
2023/03/27 13:19:55;;;;;;;3.62;2.10;;;;;;;9.02;76.22;98848.06;5569427;31;34422;-55
2023/03/27 13:23:14;;;;;;;2.78;2.00;;;;;;;8.68;72.55;98862.03;5569872;31;33321;-55
2023/03/27 13:26:32;;;;;;;2.85;2.10;;;;;;;8.58;73.08;98860.41;5569859;31;33274;-55
2023/03/27 13:29:34;;;;;;;3.87;2.40;;;;;;;8.56;76.78;98865.25;5569249;31;34640;-55
2023/03/27 13:32:39;;;;;;;2.67;1.95;;;;;;;8.41;73.54;98881.59;5569526;31;33436;-56
2023/03/27 13:36:01;;;;;;;3.42;2.05;;;;;;;8.61;78.18;98881.16;5569286;31;33413;-55
2023/03/27 13:39:14;;;;;;;4.75;2.10;;;;;;;8.65;73.66;98898.16;5568453;32;34631;-56
2023/03/27 13:42:23;;;;;;;2.60;1.90;;;;;;;8.32;74.12;98918.13;5569952;31;33689;-55
2023/03/27 13:45:40;;;;;;;2.58;1.80;;;;;;;8.17;77.40;98913.88;5564097;32;33532;-55
2023/03/27 13:48:57;;;;;;;3.70;2.05;;;;;;;7.82;78.36;98936.78;5560779;32;33620;-55
2023/03/27 13:52:18;;;;;;;3.05;2.12;;;;;;;7.77;76.95;98938.44;5563276;32;34571;-55
2023/03/27 13:55:23;;;;;;;2.85;2.10;;;;;;;7.70;75.64;98962.03;5569802;31;33408;-55
2023/03/27 13:58:50;;;;;;;3.10;2.30;;;;;;;7.76;79.97;98968.88;5569770;31;33384;-56
2023/03/27 14:02:11;;;;;;;3.25;2.47;;;;;;;7.48;76.26;98968.06;5569604;32;33787;-54
2023/03/27 14:05:53;;;;;;;4.55;2.72;;;;;;;7.31;84.42;98999.78;5569360;32;33648;-55
2023/03/27 14:09:09;;;;;;;5.45;3.30;;;;;;;7.26;73.15;99006.00;5569589;32;33044;-55
2023/03/27 14:12:54;;;;;;;4.37;3.15;;;;;;;7.24;73.10;98991.38;5569894;32;33792;-54
2023/03/27 14:16:30;;;;;;;5.93;3.95;;;;;;;7.23;76.63;99016.47;5568424;32;33660;-55
2023/03/27 14:20:07;;;;;;;5.50;4.37;;;;;;;6.90;74.05;99024.41;5569437;32;34551;-54
2023/03/27 14:23:15;;;;;;;5.78;3.90;;;;;;;6.69;72.54;99023.09;5569537;31;33471;-54
2023/03/27 14:26:23;;;;;;;6.55;3.70;;;;;;;6.40;74.74;99071.94;5569499;31;34599;-54
2023/03/27 14:29:27;;;;;;;6.87;4.07;;;;;;;6.24;76.65;99076.63;5569212;31;34384;-55
2023/03/27 14:32:29;;;;;;;5.68;3.90;;;;;;;6.33;77.77;99098.91;5569681;31;33350;-55
2023/03/27 14:35:38;;;;;;;5.80;4.53;;;;;;;6.25;75.99;99096.84;5569717;32;34452;-55
2023/03/27 14:38:41;;;;;;;6.80;4.20;;;;;;;6.30;75.64;99122.63;5569342;31;34362;-55
2023/03/27 14:41:48;;;;;;;6.12;4.03;;;;;;;6.25;74.74;99125.34;5567959;31;33199;-55
2023/03/27 14:44:52;;;;;;;4.65;3.53;;;;;;;6.24;72.62;99139.72;5567380;31;33601;-56
2023/03/27 14:48:01;;;;;;;5.03;3.50;;;;;;;6.17;72.64;99137.41;5569371;31;33412;-55
2023/03/27 14:51:23;;;;;;;4.62;3.30;;;;;;;6.31;73.15;99134.84;5569245;31;33382;-55
2023/03/27 14:54:27;;;;;;;5.57;3.40;;;;;;;6.31;70.20;99151.62;5569277;32;34400;-55
2023/03/27 14:57:31;;;;;;;3.53;2.72;;;;;;;6.25;71.16;99168.69;5568194;31;33352;-54
2023/03/27 15:00:38;;;;;;;4.28;2.70;;;;;;;6.15;66.38;99187.44;5565174;31;34335;-55
2023/03/27 15:03:43;;;;;;;4.90;2.97;;;;;;;6.04;67.30;99159.34;5569361;31;33452;-55
2023/03/27 15:06:48;;;;;;;4.47;3.12;;;;;;;6.06;66.56;99159.81;5569091;32;33750;-55
2023/03/27 15:10:19;;;;;;;5.35;3.10;;;;;;;5.97;67.82;99164.19;5564568;31;33463;-55
2023/03/27 15:13:25;;;;;;;5.65;3.35;;;;;;;5.89;70.30;99178.81;5564138;32;33297;-55
2023/03/27 15:16:31;;;;;;;6.03;2.75;;;;;;;5.87;66.12;99194.28;5569383;31;33248;-55
2023/03/27 15:19:48;;;;;;;3.40;2.78;;;;;;;5.78;69.17;99217.22;5569266;32;34522;-55
2023/03/27 15:23:00;;;;;;;4.18;2.78;;;;;;;5.57;66.47;99227.19;5569080;31;33344;-55
2023/03/27 15:26:10;;;;;;;11.80;2.85;;;;;;;5.50;68.34;99214.22;5569136;32;33690;-54
2023/03/27 15:29:28;;;;;;;4.93;2.80;;;;;;;5.39;64.77;99263.16;5569209;32;33630;-55
2023/03/27 15:32:49;;;;;;;6.57;3.30;;;;;;;5.40;66.42;99228.34;5569183;32;33680;-55
2023/03/27 15:35:55;;;;;;;4.50;2.83;;;;;;;5.85;85.35;99252.28;5569219;32;34414;-55
2023/03/27 15:39:02;;;;;;;6.43;3.30;;;;;;;5.62;63.75;99281.12;5568923;32;34511;-55
2023/03/27 15:42:12;;;;;;;4.78;2.78;;;;;;;5.53;65.77;99274.81;5569071;32;33670;-56
2023/03/27 15:45:16;;;;;;;3.47;2.50;;;;;;;5.57;65.55;99273.19;5568859;32;34303;-55
2023/03/27 15:48:29;;;;;;;3.50;2.45;;;;;;;5.53;63.00;99271.34;5569051;32;33753;-55
2023/03/27 15:51:31;;;;;;;3.85;2.45;;;;;;;5.51;63.55;99279.59;5568813;32;33760;-55
2023/03/27 15:54:34;;;;;;;4.45;2.60;;;;;;;5.31;64.45;99279.69;5568757;32;34444;-55
2023/03/27 15:57:39;;;;;;;3.83;2.62;;;;;;;5.30;62.42;99302.03;5568745;32;33664;-55
2023/03/27 16:00:47;;;;;;;3.67;2.45;;;;;;;5.40;64.68;99280.72;5568253;32;33758;-55
2023/03/27 16:03:50;;;;;;;4.35;2.70;;;;;;;5.32;63.01;99340.53;5568417;32;34354;-55
